Time;durP1;ratioP1;P1;durP2;ratioP2;P2;SDS_P1;SDS_P2;PMS_P1;PMS_P2;Temp;Humidity;BMP_temperature;BMP_pressure;BME280_temperature;BME280_humidity;BME280_pressure;Samples;Min_cycle;Max_cycle;Signal;HPM_P1;HPM_P2
2021/05/02 00:01:59;;;;;;;118.37;56.27;;;;;;;;;;771846;180;920102;-68
2021/05/02 00:04:25;;;;;;;113.10;54.90;;;;;;;;;;771488;177;919797;-71
2021/05/02 00:06:50;;;;;;;119.27;57.63;;;;;;;;;;775206;177;1130576;-70
2021/05/02 00:09:16;;;;;;;124.00;55.30;;;;;;;;;;773995;180;918918;-68
2021/05/02 00:11:42;;;;;;;147.73;64.22;;;;;;;;;;763357;180;1920938;-70
2021/05/02 00:14:08;;;;;;;121.17;58.83;;;;;;;;;;774083;180;918545;-70
2021/05/02 00:16:34;;;;;;;86.03;46.00;;;;;;;;;;765004;179;918599;-69
2021/05/02 00:19:00;;;;;;;113.17;57.50;;;;;;;;;;769542;179;919288;-69
2021/05/02 00:21:26;;;;;;;122.27;56.23;;;;;;;;;;770240;179;918800;-69
2021/05/02 00:23:52;;;;;;;135.13;62.00;;;;;;;;;;779639;179;918503;-68
2021/05/02 00:26:17;;;;;;;107.53;53.10;;;;;;;;;;771187;180;919341;-69
2021/05/02 00:28:43;;;;;;;118.40;56.23;;;;;;;;;;770562;179;970191;-69
2021/05/02 00:31:09;;;;;;;108.37;56.57;;;;;;;;;;770649;180;918717;-68
2021/05/02 00:33:35;;;;;;;100.37;51.90;;;;;;;;;;773991;179;919843;-70
2021/05/02 00:36:04;;;;;;;106.23;56.77;;;;;;;;;;771256;180;918804;-68
2021/05/02 00:38:29;;;;;;;104.43;51.87;;;;;;;;;;767200;180;938139;-70
2021/05/02 00:40:56;;;;;;;109.07;54.10;;;;;;;;;;768066;180;925376;-70
2021/05/02 00:43:38;;;;;;;125.30;55.50;;;;;;;;;;768446;180;918534;-69
2021/05/02 00:46:06;;;;;;;108.53;52.77;;;;;;;;;;764633;178;918858;-71
2021/05/02 00:48:32;;;;;;;107.80;59.50;;;;;;;;;;777653;180;918278;-70
2021/05/02 00:51:01;;;;;;;125.40;63.90;;;;;;;;;;775965;180;918998;-70
2021/05/02 00:53:24;;;;;;;124.57;61.20;;;;;;;;;;773351;178;918431;-71
2021/05/02 00:55:49;;;;;;;128.93;65.53;;;;;;;;;;760701;180;919486;-71
2021/05/02 00:58:16;;;;;;;138.03;69.47;;;;;;;;;;774852;180;1009706;-71
2021/05/02 01:00:42;;;;;;;133.10;62.97;;;;;;;;;;772622;180;919109;-70
2021/05/02 01:03:08;;;;;;;128.60;63.67;;;;;;;;;;773008;177;614206;-68
2021/05/02 01:05:34;;;;;;;134.93;65.93;;;;;;;;;;776172;178;635454;-71
2021/05/02 01:08:00;;;;;;;136.43;65.00;;;;;;;;;;775585;180;615654;-70
2021/05/02 01:10:27;;;;;;;98.20;50.97;;;;;;;;;;776970;178;633274;-69
2021/05/02 01:12:51;;;;;;;91.77;50.33;;;;;;;;;;768018;180;912638;-70
2021/05/02 01:15:22;;;;;;;117.57;60.30;;;;;;;;;;773797;180;919785;-71
2021/05/02 01:17:43;;;;;;;132.77;64.57;;;;;;;;;;758554;177;1121068;-70
2021/05/02 01:20:10;;;;;;;126.15;57.85;;;;;;;;;;759984;183;918452;-67
2021/05/02 01:22:36;;;;;;;115.97;61.53;;;;;;;;;;769699;181;918508;-67
2021/05/02 01:25:02;;;;;;;110.97;55.97;;;;;;;;;;773481;180;919311;-69
2021/05/02 01:27:28;;;;;;;112.33;59.23;;;;;;;;;;775279;179;941140;-69
2021/05/02 01:29:54;;;;;;;116.93;59.83;;;;;;;;;;771730;180;919056;-68
2021/05/02 01:32:20;;;;;;;99.43;52.57;;;;;;;;;;764479;180;919664;-69
2021/05/02 01:34:45;;;;;;;122.18;58.35;;;;;;;;;;768871;178;919518;-68
2021/05/02 01:37:11;;;;;;;120.00;59.33;;;;;;;;;;769399;180;919643;-69
2021/05/02 01:39:37;;;;;;;111.03;56.33;;;;;;;;;;771221;179;1873567;-67
2021/05/02 01:42:03;;;;;;;105.67;52.70;;;;;;;;;;774436;177;1021061;-68
2021/05/02 01:44:29;;;;;;;128.63;57.03;;;;;;;;;;772480;177;932543;-69
2021/05/02 01:46:55;;;;;;;111.43;55.20;;;;;;;;;;778849;180;917688;-70
2021/05/02 01:49:21;;;;;;;119.17;59.00;;;;;;;;;;770296;180;918442;-69
2021/05/02 01:51:47;;;;;;;117.90;60.20;;;;;;;;;;773434;180;919024;-70
2021/05/02 01:54:13;;;;;;;103.97;54.00;;;;;;;;;;772846;180;919777;-69
2021/05/02 01:56:39;;;;;;;104.53;52.57;;;;;;;;;;769947;180;940712;-71
2021/05/02 01:59:04;;;;;;;103.07;52.93;;;;;;;;;;773989;177;920319;-69
2021/05/02 02:01:30;;;;;;;89.73;43.77;;;;;;;;;;770021;177;916794;-69
2021/05/02 02:03:56;;;;;;;109.90;51.57;;;;;;;;;;777941;179;916353;-68
2021/05/02 02:06:22;;;;;;;98.57;49.40;;;;;;;;;;770652;180;948283;-67
2021/05/02 02:08:48;;;;;;;110.17;54.93;;;;;;;;;;770518;180;919886;-67
2021/05/02 02:11:14;;;;;;;90.27;46.57;;;;;;;;;;774786;180;919326;-66
2021/05/02 02:13:40;;;;;;;87.97;44.67;;;;;;;;;;771161;181;919893;-64
2021/05/02 02:16:06;;;;;;;98.03;52.73;;;;;;;;;;766136;181;1021348;-64
2021/05/02 02:18:32;;;;;;;96.03;48.90;;;;;;;;;;775438;180;918694;-64
2021/05/02 02:20:58;;;;;;;100.53;46.20;;;;;;;;;;766716;180;1021774;-62
2021/05/02 02:23:24;;;;;;;76.93;42.87;;;;;;;;;;772487;180;919819;-61
2021/05/02 02:25:50;;;;;;;82.50;41.80;;;;;;;;;;773990;178;961278;-63
2021/05/02 02:28:17;;;;;;;79.13;42.80;;;;;;;;;;778600;180;920140;-64
2021/05/02 02:30:43;;;;;;;73.67;37.97;;;;;;;;;;772927;180;919448;-64
2021/05/02 02:33:09;;;;;;;70.60;38.07;;;;;;;;;;769319;180;1046203;-65
2021/05/02 02:35:34;;;;;;;93.23;44.60;;;;;;;;;;775506;180;919494;-65
2021/05/02 02:38:05;;;;;;;76.23;37.87;;;;;;;;;;769902;179;919219;-66
2021/05/02 02:40:26;;;;;;;69.00;38.50;;;;;;;;;;768256;179;930753;-67
2021/05/02 02:42:52;;;;;;;66.32;34.95;;;;;;;;;;778409;179;918771;-65
2021/05/02 02:45:18;;;;;;;73.10;41.10;;;;;;;;;;773328;179;919702;-65
2021/05/02 02:47:48;;;;;;;71.97;38.60;;;;;;;;;;770433;179;957710;-66
2021/05/02 02:50:14;;;;;;;68.80;40.00;;;;;;;;;;772869;179;919556;-67
2021/05/02 02:52:43;;;;;;;65.53;36.40;;;;;;;;;;775396;179;923203;-66
2021/05/02 02:55:10;;;;;;;74.73;36.97;;;;;;;;;;777025;180;919086;-67
2021/05/02 02:57:38;;;;;;;71.73;39.43;;;;;;;;;;769495;180;1019611;-67
2021/05/02 03:00:03;;;;;;;65.60;35.83;;;;;;;;;;772883;177;919383;-65
2021/05/02 03:02:29;;;;;;;67.87;34.67;;;;;;;;;;773537;180;920128;-65
2021/05/02 03:04:55;;;;;;;53.07;25.23;;;;;;;;;;765263;180;919527;-66
2021/05/02 03:07:21;;;;;;;60.30;30.73;;;;;;;;;;771878;178;921041;-67
2021/05/02 03:09:46;;;;;;;64.20;36.67;;;;;;;;;;780273;180;618700;-66
2021/05/02 03:12:13;;;;;;;51.27;28.53;;;;;;;;;;774081;178;714301;-67
2021/05/02 03:14:38;;;;;;;60.28;33.95;;;;;;;;;;770689;180;918736;-67
2021/05/02 03:17:04;;;;;;;60.67;32.07;;;;;;;;;;773104;180;919655;-65
2021/05/02 03:19:30;;;;;;;67.30;35.37;;;;;;;;;;766048;180;918662;-66
2021/05/02 03:21:56;;;;;;;66.50;35.40;;;;;;;;;;773484;179;918666;-65
2021/05/02 03:24:25;;;;;;;65.30;35.77;;;;;;;;;;775454;180;917340;-64
2021/05/02 03:26:51;;;;;;;60.90;33.00;;;;;;;;;;772938;180;918272;-64
2021/05/02 03:29:17;;;;;;;68.85;36.85;;;;;;;;;;760010;180;919534;-64
2021/05/02 03:31:43;;;;;;;51.63;31.53;;;;;;;;;;771225;180;919554;-63
2021/05/02 03:34:09;;;;;;;64.27;35.70;;;;;;;;;;774347;180;1211669;-62
2021/05/02 03:36:36;;;;;;;57.63;31.77;;;;;;;;;;773618;181;918841;-62
2021/05/02 03:39:02;;;;;;;67.95;35.58;;;;;;;;;;772524;178;1021528;-63
2021/05/02 03:41:28;;;;;;;65.50;32.03;;;;;;;;;;777580;180;919567;-63
2021/05/02 03:43:54;;;;;;;64.83;34.53;;;;;;;;;;768059;180;921308;-63
2021/05/02 03:46:24;;;;;;;61.03;34.67;;;;;;;;;;772689;180;919167;-62
2021/05/02 03:48:52;;;;;;;59.10;31.67;;;;;;;;;;769239;180;918923;-63
2021/05/02 03:51:17;;;;;;;60.50;33.80;;;;;;;;;;777991;180;924331;-62
2021/05/02 03:53:43;;;;;;;59.57;32.70;;;;;;;;;;765394;180;1202250;-62
2021/05/02 03:56:09;;;;;;;58.40;29.87;;;;;;;;;;771410;180;919580;-61
2021/05/02 03:58:35;;;;;;;65.33;33.80;;;;;;;;;;779045;177;919249;-66
2021/05/02 04:01:01;;;;;;;59.13;33.87;;;;;;;;;;772964;179;912820;-63
2021/05/02 04:03:27;;;;;;;54.27;33.60;;;;;;;;;;774584;177;911714;-63
2021/05/02 04:05:52;;;;;;;60.63;31.60;;;;;;;;;;758000;182;912881;-61
2021/05/02 04:08:18;;;;;;;64.57;34.00;;;;;;;;;;767935;181;910925;-63
2021/05/02 04:10:44;;;;;;;60.60;31.70;;;;;;;;;;768355;178;908474;-63
2021/05/02 04:13:10;;;;;;;58.27;31.07;;;;;;;;;;771242;180;919397;-63
2021/05/02 04:15:36;;;;;;;55.13;33.80;;;;;;;;;;775604;178;1260414;-65
2021/05/02 04:18:02;;;;;;;53.43;28.77;;;;;;;;;;774374;180;989912;-64
2021/05/02 04:20:27;;;;;;;57.47;28.87;;;;;;;;;;773305;177;918034;-65
2021/05/02 04:22:53;;;;;;;50.13;29.30;;;;;;;;;;777887;180;920077;-65
2021/05/02 04:25:19;;;;;;;54.90;28.53;;;;;;;;;;768282;180;919384;-66
2021/05/02 04:27:45;;;;;;;51.10;29.00;;;;;;;;;;770343;180;919241;-65
2021/05/02 04:30:11;;;;;;;71.07;37.00;;;;;;;;;;776146;180;918546;-65
2021/05/02 04:32:37;;;;;;;77.10;39.47;;;;;;;;;;780376;180;629500;-66
2021/05/02 04:35:03;;;;;;;48.20;26.47;;;;;;;;;;775402;180;631829;-66
2021/05/02 04:37:29;;;;;;;65.97;37.77;;;;;;;;;;779381;177;633382;-65
2021/05/02 04:39:55;;;;;;;72.97;39.05;;;;;;;;;;776451;180;919494;-65
2021/05/02 04:42:21;;;;;;;58.07;28.90;;;;;;;;;;770882;178;985822;-64
2021/05/02 04:44:46;;;;;;;58.05;30.85;;;;;;;;;;772974;180;919572;-62
2021/05/02 04:47:12;;;;;;;68.10;36.90;;;;;;;;;;775585;180;918610;-62
2021/05/02 04:49:38;;;;;;;58.90;31.93;;;;;;;;;;772016;179;919390;-63
2021/05/02 04:52:04;;;;;;;66.87;33.47;;;;;;;;;;772162;180;918404;-63
2021/05/02 04:54:30;;;;;;;61.53;34.90;;;;;;;;;;777109;180;919540;-63
2021/05/02 04:56:56;;;;;;;78.73;43.37;;;;;;;;;;768525;178;918831;-64
2021/05/02 04:59:22;;;;;;;84.37;38.77;;;;;;;;;;772209;180;919936;-63
2021/05/02 05:01:48;;;;;;;83.23;43.97;;;;;;;;;;768535;177;1102578;-63
2021/05/02 05:04:13;;;;;;;106.57;49.27;;;;;;;;;;776491;180;917597;-64
2021/05/02 05:06:39;;;;;;;86.87;46.73;;;;;;;;;;770832;180;918979;-64
2021/05/02 05:09:06;;;;;;;141.23;56.80;;;;;;;;;;772882;177;999412;-65
2021/05/02 05:11:31;;;;;;;104.77;51.40;;;;;;;;;;771365;177;919071;-65
2021/05/02 05:13:57;;;;;;;71.03;38.87;;;;;;;;;;749459;186;919618;-67
2021/05/02 05:16:23;;;;;;;168.80;72.33;;;;;;;;;;745271;186;985308;-65
2021/05/02 05:18:49;;;;;;;119.70;50.17;;;;;;;;;;767990;180;1017790;-65
2021/05/02 05:21:15;;;;;;;76.67;35.37;;;;;;;;;;772313;180;923095;-65
2021/05/02 05:23:41;;;;;;;90.60;42.00;;;;;;;;;;768122;177;1299022;-64
2021/05/02 05:26:06;;;;;;;113.47;53.37;;;;;;;;;;777493;180;919190;-65
2021/05/02 05:28:32;;;;;;;66.60;37.20;;;;;;;;;;774184;177;917948;-65
2021/05/02 05:30:58;;;;;;;93.97;44.90;;;;;;;;;;766943;180;1928443;-65
2021/05/02 05:33:24;;;;;;;70.10;37.47;;;;;;;;;;773784;178;815535;-64
2021/05/02 05:35:50;;;;;;;72.30;33.43;;;;;;;;;;777590;180;920745;-65
2021/05/02 05:38:16;;;;;;;74.80;34.30;;;;;;;;;;773218;180;845300;-65
2021/05/02 05:40:42;;;;;;;71.20;37.47;;;;;;;;;;774610;180;919096;-65
2021/05/02 05:43:08;;;;;;;72.50;38.43;;;;;;;;;;774684;178;918850;-65
2021/05/02 05:45:33;;;;;;;121.33;56.07;;;;;;;;;;771877;180;919421;-65
2021/05/02 05:47:59;;;;;;;78.80;39.07;;;;;;;;;;769901;178;921515;-65
2021/05/02 05:50:25;;;;;;;87.27;40.90;;;;;;;;;;770280;177;919894;-65
2021/05/02 05:52:51;;;;;;;93.13;42.80;;;;;;;;;;763373;180;920108;-63
2021/05/02 05:55:17;;;;;;;81.27;39.67;;;;;;;;;;769877;180;920253;-62
2021/05/02 05:57:44;;;;;;;79.07;40.60;;;;;;;;;;771902;180;918376;-63
2021/05/02 06:00:11;;;;;;;78.17;40.37;;;;;;;;;;774651;180;919964;-62
2021/05/02 06:02:36;;;;;;;84.78;41.53;;;;;;;;;;769598;180;981980;-62
2021/05/02 06:05:02;;;;;;;127.23;60.37;;;;;;;;;;769305;180;922087;-61
2021/05/02 06:07:28;;;;;;;134.03;62.60;;;;;;;;;;778267;180;919831;-61
2021/05/02 06:09:54;;;;;;;131.40;61.17;;;;;;;;;;766839;177;1435478;-61
2021/05/02 06:12:20;;;;;;;89.63;42.00;;;;;;;;;;771250;180;920158;-61
2021/05/02 06:14:46;;;;;;;82.73;43.10;;;;;;;;;;777619;178;917781;-63
2021/05/02 06:17:12;;;;;;;76.17;40.07;;;;;;;;;;774704;180;920121;-63
2021/05/02 06:19:38;;;;;;;84.75;41.42;;;;;;;;;;773557;177;916942;-63
2021/05/02 06:22:04;;;;;;;90.00;45.75;;;;;;;;;;773923;179;919468;-62
2021/05/02 06:24:30;;;;;;;90.13;40.87;;;;;;;;;;771140;180;917584;-64
2021/05/02 06:26:56;;;;;;;96.93;45.90;;;;;;;;;;771983;180;919552;-65
2021/05/02 06:29:21;;;;;;;90.13;42.37;;;;;;;;;;768174;177;1063912;-63
2021/05/02 06:31:47;;;;;;;82.33;41.10;;;;;;;;;;779802;180;620288;-64
2021/05/02 06:34:13;;;;;;;78.67;40.23;;;;;;;;;;774232;180;740534;-63
2021/05/02 06:36:40;;;;;;;80.47;42.80;;;;;;;;;;774400;178;639276;-66
2021/05/02 06:39:05;;;;;;;83.93;44.27;;;;;;;;;;781620;180;644283;-66
2021/05/02 06:41:31;;;;;;;95.33;43.73;;;;;;;;;;769086;180;639679;-64
2021/05/02 06:43:57;;;;;;;98.80;46.37;;;;;;;;;;776996;180;641105;-64
2021/05/02 06:46:28;;;;;;;88.57;43.77;;;;;;;;;;779177;180;732293;-63
2021/05/02 06:48:53;;;;;;;83.27;41.67;;;;;;;;;;777125;180;1009367;-64
2021/05/02 06:51:19;;;;;;;65.57;34.93;;;;;;;;;;770797;178;915342;-64
2021/05/02 06:53:45;;;;;;;85.62;46.30;;;;;;;;;;772579;178;848276;-62
2021/05/02 06:56:11;;;;;;;104.37;50.60;;;;;;;;;;773555;181;905667;-61
2021/05/02 06:58:37;;;;;;;92.97;44.17;;;;;;;;;;777413;180;632137;-63
2021/05/02 07:01:03;;;;;;;103.80;47.57;;;;;;;;;;775280;177;674922;-63
2021/05/02 07:03:29;;;;;;;88.03;36.70;;;;;;;;;;780920;180;620630;-62
2021/05/02 07:05:55;;;;;;;104.07;52.87;;;;;;;;;;768323;180;626354;-62
2021/05/02 07:08:21;;;;;;;99.53;47.13;;;;;;;;;;776372;178;632035;-62
2021/05/02 07:10:46;;;;;;;106.67;49.40;;;;;;;;;;777814;181;640460;-62
2021/05/02 07:13:12;;;;;;;97.73;50.23;;;;;;;;;;758541;180;624647;-62
2021/05/02 07:15:39;;;;;;;102.80;48.43;;;;;;;;;;761942;182;641841;-63
2021/05/02 07:18:04;;;;;;;111.37;52.80;;;;;;;;;;768818;180;681563;-63
2021/05/02 07:20:30;;;;;;;100.87;50.63;;;;;;;;;;780801;178;614893;-65
2021/05/02 07:22:56;;;;;;;103.80;49.73;;;;;;;;;;772297;180;646455;-64
2021/05/02 07:25:23;;;;;;;109.73;48.77;;;;;;;;;;778265;179;641806;-63
2021/05/02 07:27:48;;;;;;;101.93;45.73;;;;;;;;;;779376;179;624650;-63
2021/05/02 07:30:14;;;;;;;97.83;40.97;;;;;;;;;;775815;180;631887;-63
2021/05/02 07:32:40;;;;;;;105.40;50.60;;;;;;;;;;774684;180;624491;-64
2021/05/02 07:35:06;;;;;;;90.10;44.30;;;;;;;;;;778560;180;657918;-64
2021/05/02 07:37:32;;;;;;;98.97;49.43;;;;;;;;;;776939;178;653922;-64
2021/05/02 07:39:58;;;;;;;96.67;50.60;;;;;;;;;;777172;178;635753;-64
2021/05/02 07:42:24;;;;;;;84.80;45.03;;;;;;;;;;776385;177;633214;-64
2021/05/02 07:44:52;;;;;;;83.33;43.63;;;;;;;;;;772958;180;621529;-65
2021/05/02 07:47:15;;;;;;;73.80;39.07;;;;;;;;;;752987;187;644865;-65
2021/05/02 07:49:41;;;;;;;62.23;35.73;;;;;;;;;;743061;185;645105;-65
2021/05/02 07:52:07;;;;;;;57.33;35.17;;;;;;;;;;756732;185;625422;-64
2021/05/02 07:54:33;;;;;;;57.70;32.20;;;;;;;;;;742900;186;687292;-65
2021/05/02 07:56:59;;;;;;;56.80;29.70;;;;;;;;;;747540;187;629976;-64
2021/05/02 07:59:25;;;;;;;52.97;30.60;;;;;;;;;;778931;177;644336;-65
2021/05/02 08:01:51;;;;;;;59.57;33.30;;;;;;;;;;774116;178;628832;-65
2021/05/02 08:04:17;;;;;;;54.40;32.97;;;;;;;;;;773993;180;636029;-66
2021/05/02 08:06:43;;;;;;;32.90;22.23;;;;;;;;;;773956;177;629063;-65
2021/05/02 08:09:09;;;;;;;35.13;21.37;;;;;;;;;;778686;180;651339;-66
2021/05/02 08:11:35;;;;;;;25.77;17.17;;;;;;;;;;776691;177;654226;-66
2021/05/02 08:14:00;;;;;;;26.30;16.03;;;;;;;;;;775544;178;627622;-66
2021/05/02 08:16:26;;;;;;;23.20;15.90;;;;;;;;;;779803;180;619621;-66
2021/05/02 08:18:52;;;;;;;23.20;15.23;;;;;;;;;;772229;180;618780;-66
2021/05/02 08:21:22;;;;;;;17.63;11.90;;;;;;;;;;774791;180;626479;-67
2021/05/02 08:23:46;;;;;;;12.83;7.80;;;;;;;;;;779287;177;616420;-67
2021/05/02 08:26:12;;;;;;;12.60;9.33;;;;;;;;;;776649;180;787484;-65
2021/05/02 08:28:37;;;;;;;9.60;6.13;;;;;;;;;;773721;181;795739;-66
2021/05/02 08:31:03;;;;;;;4.63;3.40;;;;;;;;;;774858;179;616376;-64
2021/05/02 08:33:29;;;;;;;5.13;3.33;;;;;;;;;;779851;180;625677;-68
2021/05/02 08:35:55;;;;;;;5.30;3.55;;;;;;;;;;778174;177;635780;-66
2021/05/02 08:38:21;;;;;;;8.67;2.80;;;;;;;;;;776589;180;637646;-67
2021/05/02 08:40:47;;;;;;;3.85;2.40;;;;;;;;;;780757;179;641368;-66
2021/05/02 08:43:12;;;;;;;4.50;3.03;;;;;;;;;;779067;178;626800;-65
2021/05/02 08:45:38;;;;;;;3.55;2.25;;;;;;;;;;775028;180;662024;-66
2021/05/02 08:48:04;;;;;;;6.90;2.77;;;;;;;;;;782201;178;634965;-67
2021/05/02 08:50:31;;;;;;;3.43;2.30;;;;;;;;;;763653;180;628326;-68
2021/05/02 08:52:57;;;;;;;4.10;2.03;;;;;;;;;;776822;180;619850;-66
2021/05/02 08:55:23;;;;;;;3.10;2.20;;;;;;;;;;775416;180;628252;-66
2021/05/02 08:57:48;;;;;;;3.87;2.40;;;;;;;;;;759895;183;622420;-67
2021/05/02 09:00:14;;;;;;;3.63;2.20;;;;;;;;;;754636;184;633959;-66
2021/05/02 09:02:40;;;;;;;3.17;1.60;;;;;;;;;;756847;184;644124;-66
2021/05/02 09:05:07;;;;;;;3.10;1.97;;;;;;;;;;759899;184;625456;-67
2021/05/02 09:07:43;;;;;;;2.77;2.00;;;;;;;;;;750577;184;1647131;-65
2021/05/02 09:10:09;;;;;;;3.27;2.10;;;;;;;;;;769249;178;640602;-68
2021/05/02 09:12:36;;;;;;;6.63;2.50;;;;;;;;;;775482;180;675264;-66
2021/05/02 09:15:06;;;;;;;3.50;2.03;;;;;;;;;;780233;180;617818;-65
2021/05/02 09:17:30;;;;;;;5.40;2.20;;;;;;;;;;771185;180;912751;-66
2021/05/02 09:19:55;;;;;;;2.20;1.40;;;;;;;;;;776868;179;638256;-66
2021/05/02 09:22:19;;;;;;;2.63;1.53;;;;;;;;;;778921;180;620330;-65
2021/05/02 09:24:45;;;;;;;8.30;2.80;;;;;;;;;;777382;177;617184;-66
2021/05/02 09:27:11;;;;;;;2.83;2.10;;;;;;;;;;771135;179;629361;-67
2021/05/02 09:29:37;;;;;;;2.57;1.70;;;;;;;;;;776492;180;623789;-65
2021/05/02 09:32:03;;;;;;;3.20;1.93;;;;;;;;;;774719;178;661661;-68
2021/05/02 09:34:29;;;;;;;3.77;1.80;;;;;;;;;;776000;180;623092;-67
2021/05/02 09:37:11;;;;;;;2.33;1.50;;;;;;;;;;764336;179;634848;-67
2021/05/02 09:39:43;;;;;;;2.93;1.80;;;;;;;;;;760395;183;639435;-68
2021/05/02 09:42:08;;;;;;;2.37;1.30;;;;;;;;;;777469;179;628578;-68
2021/05/02 09:44:36;;;;;;;3.73;1.40;;;;;;;;;;775002;180;758623;-69
2021/05/02 09:47:02;;;;;;;3.37;1.90;;;;;;;;;;773343;180;909204;-69
2021/05/02 09:49:28;;;;;;;4.00;1.57;;;;;;;;;;778028;178;911536;-67
2021/05/02 09:51:55;;;;;;;4.30;2.30;;;;;;;;;;770899;181;621859;-68
2021/05/02 09:54:21;;;;;;;8.10;2.30;;;;;;;;;;776885;177;1066350;-68
2021/05/02 09:56:46;;;;;;;2.93;1.73;;;;;;;;;;775571;178;1032200;-68
2021/05/02 09:59:21;;;;;;;2.60;1.70;;;;;;;;;;780230;180;626693;-70
2021/05/02 10:01:53;;;;;;;3.53;1.70;;;;;;;;;;777507;180;621240;-69
2021/05/02 10:04:18;;;;;;;2.70;1.53;;;;;;;;;;776875;177;726392;-69
2021/05/02 10:06:45;;;;;;;2.83;1.80;;;;;;;;;;775692;178;635468;-69
2021/05/02 10:09:12;;;;;;;4.45;1.83;;;;;;;;;;776122;179;921857;-69
2021/05/02 10:11:36;;;;;;;3.83;1.87;;;;;;;;;;776224;179;632961;-69
2021/05/02 10:14:03;;;;;;;2.50;1.65;;;;;;;;;;771150;180;1060606;-69
2021/05/02 10:16:29;;;;;;;2.40;1.57;;;;;;;;;;779183;180;917524;-70
2021/05/02 10:18:54;;;;;;;3.50;1.60;;;;;;;;;;771280;178;917712;-68
2021/05/02 10:21:20;;;;;;;2.50;1.50;;;;;;;;;;773395;180;922353;-69
2021/05/02 10:23:46;;;;;;;3.20;1.50;;;;;;;;;;771917;180;918839;-68
2021/05/02 10:26:13;;;;;;;1.70;1.10;;;;;;;;;;777179;180;918385;-70
2021/05/02 10:28:38;;;;;;;2.80;1.60;;;;;;;;;;771221;180;919179;-69
2021/05/02 10:31:04;;;;;;;2.00;1.27;;;;;;;;;;772544;180;919136;-71
2021/05/02 10:33:30;;;;;;;2.23;1.30;;;;;;;;;;776501;180;910913;-67
2021/05/02 10:35:56;;;;;;;2.40;1.60;;;;;;;;;;769052;180;950299;-68
2021/05/02 10:38:23;;;;;;;1.80;1.10;;;;;;;;;;770414;180;1013371;-70
2021/05/02 10:40:49;;;;;;;2.55;1.50;;;;;;;;;;777130;178;884043;-71
2021/05/02 10:43:27;;;;;;;2.50;1.63;;;;;;;;;;770105;180;912309;-70
2021/05/02 10:45:54;;;;;;;3.43;1.80;;;;;;;;;;773522;178;917432;-71
2021/05/02 10:48:37;;;;;;;1.90;1.03;;;;;;;;;;774535;177;741000;-72
2021/05/02 10:51:03;;;;;;;2.00;1.07;;;;;;;;;;772919;180;919508;-70
2021/05/02 10:53:28;;;;;;;2.63;1.30;;;;;;;;;;781717;180;616899;-71
2021/05/02 10:56:00;;;;;;;3.63;1.37;;;;;;;;;;773345;180;639060;-71
2021/05/02 10:58:25;;;;;;;2.50;1.10;;;;;;;;;;772753;178;917938;-72
2021/05/02 11:00:52;;;;;;;2.20;1.30;;;;;;;;;;771636;178;929654;-73
2021/05/02 11:03:22;;;;;;;2.30;1.40;;;;;;;;;;777403;180;818277;-73
2021/05/02 11:05:48;;;;;;;2.10;1.40;;;;;;;;;;769029;180;921251;-72
2021/05/02 11:08:14;;;;;;;1.83;1.13;;;;;;;;;;772769;180;920051;-70
2021/05/02 11:10:51;;;;;;;2.27;1.53;;;;;;;;;;770590;180;919320;-71
2021/05/02 11:13:22;;;;;;;3.13;1.90;;;;;;;;;;772528;180;942844;-72
2021/05/02 11:15:48;;;;;;;2.63;1.40;;;;;;;;;;774690;180;918144;-72
2021/05/02 11:18:20;;;;;;;2.73;1.80;;;;;;;;;;773006;179;918402;-71
2021/05/02 11:20:47;;;;;;;3.80;1.67;;;;;;;;;;770901;180;1489182;-72
2021/05/02 11:23:12;;;;;;;2.73;1.67;;;;;;;;;;777098;180;920545;-72
2021/05/02 11:25:42;;;;;;;3.30;1.63;;;;;;;;;;776096;180;628115;-71
2021/05/02 11:28:07;;;;;;;2.10;1.50;;;;;;;;;;771549;180;918622;-73
2021/05/02 11:30:32;;;;;;;2.63;1.87;;;;;;;;;;774403;180;641314;-71
2021/05/02 11:32:58;;;;;;;3.00;1.87;;;;;;;;;;779183;178;641729;-72
2021/05/02 11:35:29;;;;;;;2.43;1.67;;;;;;;;;;771478;180;1102521;-71
2021/05/02 11:37:56;;;;;;;2.60;1.70;;;;;;;;;;770663;180;906300;-70
2021/05/02 11:40:39;;;;;;;2.07;1.57;;;;;;;;;;776574;179;892921;-72
2021/05/02 11:43:07;;;;;;;2.83;1.57;;;;;;;;;;773580;177;1315336;-72
2021/05/02 11:45:40;;;;;;;2.23;1.47;;;;;;;;;;775054;178;917968;-72
2021/05/02 11:48:07;;;;;;;2.20;1.73;;;;;;;;;;771268;177;806574;-71
2021/05/02 11:50:40;;;;;;;5.43;1.83;;;;;;;;;;776943;178;651849;-73
2021/05/02 11:53:06;;;;;;;4.60;1.93;;;;;;;;;;771834;180;919129;-72
2021/05/02 11:55:33;;;;;;;4.77;2.03;;;;;;;;;;773753;181;918690;-71
2021/05/02 11:57:59;;;;;;;3.20;1.60;;;;;;;;;;770099;178;919519;-72
2021/05/02 12:00:30;;;;;;;3.83;1.50;;;;;;;;;;770224;178;916445;-70
2021/05/02 12:02:57;;;;;;;2.37;1.40;;;;;;;;;;775388;180;915530;-71
2021/05/02 12:05:23;;;;;;;2.53;1.50;;;;;;;;;;771121;180;916156;-71
2021/05/02 12:07:49;;;;;;;3.93;1.57;;;;;;;;;;769100;178;923501;-71
2021/05/02 12:10:15;;;;;;;2.20;1.20;;;;;;;;;;770081;179;942421;-73
2021/05/02 12:12:41;;;;;;;2.23;1.40;;;;;;;;;;774875;179;1164325;-71
2021/05/02 12:15:07;;;;;;;1.77;1.03;;;;;;;;;;771511;178;916154;-72
2021/05/02 12:17:33;;;;;;;2.70;1.50;;;;;;;;;;778516;178;915963;-70
2021/05/02 12:19:59;;;;;;;2.73;1.67;;;;;;;;;;772123;180;919504;-70
2021/05/02 12:22:25;;;;;;;3.85;1.30;;;;;;;;;;772702;180;920026;-72
2021/05/02 12:24:51;;;;;;;2.63;1.40;;;;;;;;;;774268;180;918779;-71
2021/05/02 12:27:18;;;;;;;2.00;1.30;;;;;;;;;;779177;180;623557;-71
2021/05/02 12:29:43;;;;;;;2.77;1.63;;;;;;;;;;773292;180;919137;-72
2021/05/02 12:32:09;;;;;;;1.97;1.20;;;;;;;;;;772254;178;920069;-72
2021/05/02 12:34:34;;;;;;;2.23;1.43;;;;;;;;;;772548;180;916738;-71
2021/05/02 12:37:12;;;;;;;2.00;1.30;;;;;;;;;;781179;179;617222;-70
2021/05/02 12:39:36;;;;;;;3.93;2.07;;;;;;;;;;762375;180;631179;-71
2021/05/02 12:42:03;;;;;;;2.10;1.30;;;;;;;;;;771909;180;773017;-72
2021/05/02 12:44:28;;;;;;;2.40;1.50;;;;;;;;;;771245;180;918590;-70
2021/05/02 12:46:56;;;;;;;1.90;1.27;;;;;;;;;;775587;180;917502;-71
2021/05/02 12:49:22;;;;;;;1.80;1.20;;;;;;;;;;770128;180;1007881;-71
2021/05/02 12:51:49;;;;;;;3.80;1.45;;;;;;;;;;773498;180;918752;-70
2021/05/02 12:54:15;;;;;;;2.57;1.53;;;;;;;;;;773482;180;919989;-70
2021/05/02 12:56:41;;;;;;;2.65;1.37;;;;;;;;;;774017;180;920089;-72
2021/05/02 12:59:13;;;;;;;2.60;1.27;;;;;;;;;;773518;178;918543;-71
2021/05/02 13:01:39;;;;;;;2.50;1.20;;;;;;;;;;772909;180;920128;-71
2021/05/02 13:04:06;;;;;;;2.77;1.80;;;;;;;;;;778824;180;885506;-72
2021/05/02 13:06:32;;;;;;;3.83;2.00;;;;;;;;;;771692;177;807129;-71
2021/05/02 13:08:58;;;;;;;2.60;1.93;;;;;;;;;;771004;178;910818;-71
2021/05/02 13:11:26;;;;;;;4.87;1.60;;;;;;;;;;774104;179;1369421;-71
2021/05/02 13:13:58;;;;;;;3.73;2.03;;;;;;;;;;775884;180;622086;-73
2021/05/02 13:16:30;;;;;;;3.23;1.97;;;;;;;;;;770375;178;919169;-70
2021/05/02 13:18:55;;;;;;;2.87;1.80;;;;;;;;;;770859;177;917802;-73
2021/05/02 13:21:24;;;;;;;2.58;1.58;;;;;;;;;;774303;178;953895;-73
2021/05/02 13:23:49;;;;;;;2.90;1.73;;;;;;;;;;776825;179;918716;-71
2021/05/02 13:26:15;;;;;;;2.80;1.90;;;;;;;;;;772170;178;916124;-69
2021/05/02 13:28:47;;;;;;;3.40;2.10;;;;;;;;;;777015;177;642371;-72
2021/05/02 13:31:12;;;;;;;2.60;1.97;;;;;;;;;;777139;180;741626;-70
2021/05/02 13:33:38;;;;;;;3.20;2.00;;;;;;;;;;765603;180;647595;-72
2021/05/02 13:36:04;;;;;;;4.20;2.10;;;;;;;;;;774876;180;705038;-70
2021/05/02 13:38:30;;;;;;;3.57;2.50;;;;;;;;;;781002;180;639934;-72
2021/05/02 13:40:56;;;;;;;3.60;2.00;;;;;;;;;;773929;178;635637;-72
2021/05/02 13:43:22;;;;;;;2.40;1.83;;;;;;;;;;775756;178;651736;-71
2021/05/02 13:45:48;;;;;;;3.10;2.30;;;;;;;;;;774485;177;916819;-72
2021/05/02 13:48:14;;;;;;;3.00;2.00;;;;;;;;;;770429;180;919546;-71
2021/05/02 13:50:40;;;;;;;2.40;2.00;;;;;;;;;;775326;180;627222;-71
2021/05/02 13:53:06;;;;;;;3.07;2.00;;;;;;;;;;772997;179;633942;-70
2021/05/02 13:55:32;;;;;;;3.87;2.67;;;;;;;;;;780437;180;624786;-73
2021/05/02 13:57:58;;;;;;;3.30;2.23;;;;;;;;;;770649;178;853184;-72
2021/05/02 14:00:24;;;;;;;5.00;2.37;;;;;;;;;;772596;181;916101;-70
2021/05/02 14:02:50;;;;;;;2.90;1.97;;;;;;;;;;777619;178;922487;-73
2021/05/02 14:05:15;;;;;;;4.13;2.23;;;;;;;;;;771062;178;961065;-73
2021/05/02 14:07:41;;;;;;;3.72;2.58;;;;;;;;;;771046;180;921290;-70